Time;durP1;ratioP1;P1;durP2;ratioP2;P2;SDS_P1;SDS_P2;PMS_P1;PMS_P2;Temp;Humidity;BMP_temperature;BMP_pressure;BME280_temperature;BME280_humidity;BME280_pressure;Samples;Min_cycle;Max_cycle;Signal;HPM_P1;HPM_P2
2022/10/14 00:01:42;;;;;;;42.00;39.10;;;;;;;12.39;100.00;96944.06;5093662;28;20237;-56
2022/10/14 00:04:07;;;;;;;24.93;22.90;;;;;;;12.50;100.00;96945.84;5093503;28;20217;-56
2022/10/14 00:06:33;;;;;;;17.53;16.03;;;;;;;12.50;100.00;96951.09;5093432;28;20216;-51
2022/10/14 00:09:01;;;;;;;16.90;15.43;;;;;;;12.39;100.00;96944.06;5093499;28;20181;-51
2022/10/14 00:11:29;;;;;;;14.97;13.40;;;;;;;12.50;100.00;96940.59;5093142;28;20321;-52
2022/10/14 00:14:01;;;;;;;15.63;14.07;;;;;;;12.38;100.00;96945.06;5093307;28;20180;-52
2022/10/14 00:16:32;;;;;;;15.13;13.67;;;;;;;12.41;100.00;96953.31;5093492;28;20208;-52
2022/10/14 00:18:58;;;;;;;15.70;14.27;;;;;;;12.41;100.00;96952.50;5093148;28;20774;-52
2022/10/14 00:21:23;;;;;;;15.50;14.10;;;;;;;12.44;100.00;96941.50;5090447;28;20241;-56
2022/10/14 00:23:49;;;;;;;15.57;13.93;;;;;;;12.37;100.00;96946.91;5090076;28;20185;-56
2022/10/14 00:26:23;;;;;;;18.50;17.20;;;;;;;12.37;100.00;96940.88;5080834;28;20249;-53
2022/10/14 00:28:49;;;;;;;19.30;17.70;;;;;;;12.40;100.00;96940.41;5092903;28;20168;-56
2022/10/14 00:31:16;;;;;;;22.13;20.53;;;;;;;12.40;100.00;96943.03;5093166;28;20173;-52
2022/10/14 00:33:42;;;;;;;20.70;18.87;;;;;;;12.35;100.00;96938.47;5092910;28;20633;-54
2022/10/14 00:36:11;;;;;;;21.13;19.10;;;;;;;12.40;100.00;96937.75;5093149;28;20223;-53
2022/10/14 00:38:36;;;;;;;22.00;20.10;;;;;;;12.45;100.00;96951.81;5092940;28;20210;-54
2022/10/14 00:41:03;;;;;;;19.53;18.03;;;;;;;12.38;100.00;96945.06;5093299;28;20252;-55
2022/10/14 00:43:29;;;;;;;28.37;26.33;;;;;;;12.38;100.00;96960.84;5093150;28;20235;-55
2022/10/14 00:45:55;;;;;;;43.00;40.10;;;;;;;12.35;100.00;96954.25;5091907;28;20200;-54
2022/10/14 00:48:24;;;;;;;42.00;39.20;;;;;;;12.46;100.00;96955.22;5091914;28;20226;-54
2022/10/14 00:50:55;;;;;;;40.47;37.53;;;;;;;12.50;100.00;96956.34;5092794;28;20184;-57
2022/10/14 00:53:21;;;;;;;42.17;39.47;;;;;;;12.53;100.00;96955.91;5092918;28;20226;-54
2022/10/14 00:55:47;;;;;;;42.23;39.30;;;;;;;12.59;100.00;96952.34;5092419;28;20192;-58
2022/10/14 00:58:12;;;;;;;44.33;41.40;;;;;;;12.55;100.00;96953.81;5092357;28;20547;-53
2022/10/14 01:00:38;;;;;;;42.77;40.07;;;;;;;12.42;100.00;96952.28;5092730;28;20202;-54
2022/10/14 01:03:08;;;;;;;38.43;36.07;;;;;;;12.37;100.00;96946.91;5092549;28;20179;-55
2022/10/14 01:05:42;;;;;;;29.03;27.00;;;;;;;12.32;100.00;96946.00;5092403;28;20193;-55
2022/10/14 01:08:26;;;;;;;32.53;30.23;;;;;;;12.39;100.00;96949.31;5091654;28;20210;-56
2022/10/14 01:11:11;;;;;;;40.43;37.63;;;;;;;12.50;100.00;96951.91;5092562;28;20207;-56
2022/10/14 01:13:50;;;;;;;37.73;35.13;;;;;;;12.57;100.00;96941.25;5092561;28;20180;-57
2022/10/14 01:16:31;;;;;;;47.43;44.50;;;;;;;12.44;100.00;96937.06;5093131;28;20660;-54
2022/10/14 01:19:18;;;;;;;42.50;39.60;;;;;;;12.42;100.00;96933.88;5091776;28;20203;-58
2022/10/14 01:21:59;;;;;;;42.70;40.00;;;;;;;12.35;100.00;96933.22;5089827;28;20228;-56
2022/10/14 01:24:49;;;;;;;30.07;27.97;;;;;;;12.35;100.00;96933.22;5092578;28;20177;-57
2022/10/14 01:27:17;;;;;;;31.37;28.60;;;;;;;12.47;100.00;96939.22;5076673;28;20204;-58
2022/10/14 01:30:18;;;;;;;24.60;22.80;;;;;;;12.58;100.00;96932.34;5092077;28;20662;-58
2022/10/14 01:33:06;;;;;;;17.37;15.90;;;;;;;12.59;100.00;96930.50;5092390;28;20168;-56
2022/10/14 01:35:40;;;;;;;13.87;12.37;;;;;;;12.54;100.00;96928.56;5080807;28;20201;-58
2022/10/14 01:38:11;;;;;;;15.03;13.57;;;;;;;12.47;100.00;96927.91;5091808;28;20195;-55
2022/10/14 01:41:01;;;;;;;16.63;15.13;;;;;;;12.37;100.00;96919.84;5092216;28;20175;-55
2022/10/14 01:43:29;;;;;;;19.17;17.60;;;;;;;12.47;100.00;96920.84;5092196;28;20230;-57
2022/10/14 01:45:58;;;;;;;25.70;23.83;;;;;;;12.41;100.00;96919.13;5090185;28;20208;-58
2022/10/14 01:48:30;;;;;;;23.57;21.77;;;;;;;12.50;100.00;96916.91;5092540;28;20640;-57
2022/10/14 01:50:59;;;;;;;22.90;20.70;;;;;;;12.54;100.00;96912.78;5092130;28;20184;-55
2022/10/14 01:53:31;;;;;;;22.50;20.30;;;;;;;12.53;100.00;96913.03;5092370;28;20177;-55
2022/10/14 01:55:59;;;;;;;25.67;23.50;;;;;;;12.44;100.00;96921.28;5092113;28;20292;-57
2022/10/14 01:58:27;;;;;;;23.00;21.03;;;;;;;12.40;100.00;96924.63;5091338;28;20203;-58
2022/10/14 02:00:53;;;;;;;20.83;18.93;;;;;;;12.47;100.00;96926.09;5092049;28;20191;-56
2022/10/14 02:03:19;;;;;;;24.33;22.43;;;;;;;12.47;100.00;96922.66;5092316;28;20177;-57
2022/10/14 02:05:48;;;;;;;22.80;20.90;;;;;;;12.44;100.00;96929.16;5091813;28;20193;-58
2022/10/14 02:08:38;;;;;;;20.97;19.40;;;;;;;12.49;100.00;96923.22;5091461;28;20177;-56
2022/10/14 02:11:11;;;;;;;23.67;21.67;;;;;;;12.55;100.00;96926.72;5084547;28;20188;-58
2022/10/14 02:14:01;;;;;;;24.13;21.93;;;;;;;12.47;100.00;96922.66;5091744;28;20192;-54
2022/10/14 02:16:54;;;;;;;25.10;23.07;;;;;;;12.42;100.00;96931.25;5092172;28;20309;-55
2022/10/14 02:22:02;;;;;;;24.37;22.27;;;;;;;12.43;100.00;96919.69;5093202;28;20224;-54
2022/10/14 02:24:37;;;;;;;20.03;18.03;;;;;;;12.34;100.00;96933.44;5095693;28;20233;-56
2022/10/14 02:27:07;;;;;;;22.13;20.10;;;;;;;12.31;100.00;96926.84;5095505;28;20691;-54
2022/10/14 02:29:35;;;;;;;19.87;18.27;;;;;;;12.25;100.00;96927.78;5095172;28;20204;-56
2022/10/14 02:32:03;;;;;;;20.57;18.90;;;;;;;12.21;100.00;96916.09;5095743;28;20185;-57
2022/10/14 02:34:29;;;;;;;22.10;20.37;;;;;;;12.22;100.00;96922.97;5095416;28;20302;-57
2022/10/14 02:36:55;;;;;;;25.60;22.97;;;;;;;12.34;100.00;96923.72;5095742;28;20279;-56
2022/10/14 02:39:26;;;;;;;26.27;24.30;;;;;;;12.33;100.00;96916.06;5094041;28;20516;-56
2022/10/14 02:41:52;;;;;;;23.27;21.20;;;;;;;12.27;100.00;96919.63;5095436;28;20180;-55
2022/10/14 02:44:17;;;;;;;22.23;20.13;;;;;;;12.27;100.00;96907.28;5094465;28;20193;-56
2022/10/14 02:46:43;;;;;;;21.87;20.13;;;;;;;12.28;100.00;96906.25;5095199;28;20256;-57
2022/10/14 02:49:08;;;;;;;22.40;20.47;;;;;;;12.24;100.00;96906.97;5095234;28;20177;-51
2022/10/14 02:51:34;;;;;;;20.87;19.17;;;;;;;11.99;100.00;96907.25;5095013;28;20184;-56
2022/10/14 02:54:01;;;;;;;18.20;16.80;;;;;;;11.95;100.00;96904.31;5094935;28;20259;-56
2022/10/14 02:56:27;;;;;;;18.37;16.33;;;;;;;11.90;100.00;96898.16;5093759;28;20242;-56
2022/10/14 02:58:53;;;;;;;18.07;16.30;;;;;;;11.98;100.00;96897.81;5094098;28;20977;-56
2022/10/14 03:01:18;;;;;;;24.60;16.93;;;;;;;11.78;100.00;96887.66;5094564;28;20220;-55
2022/10/14 03:03:44;;;;;;;20.00;17.90;;;;;;;11.54;100.00;96878.19;5094804;28;20648;-54
2022/10/14 03:06:09;;;;;;;20.47;18.00;;;;;;;11.56;100.00;96879.56;5094961;28;20205;-54
2022/10/14 03:08:35;;;;;;;23.13;20.93;;;;;;;11.60;100.00;96885.13;5094329;28;20773;-56
2022/10/14 03:11:00;;;;;;;21.20;19.00;;;;;;;11.54;100.00;96878.19;5094867;28;20176;-55
2022/10/14 03:13:26;;;;;;;21.33;19.20;;;;;;;11.52;100.00;96872.38;5094140;28;20663;-56
2022/10/14 03:15:51;;;;;;;24.23;20.40;;;;;;;11.45;100.00;96862.00;5094373;28;20203;-53
2022/10/14 03:18:17;;;;;;;29.37;18.10;;;;;;;11.46;100.00;96865.44;5094464;28;20208;-54
2022/10/14 03:20:43;;;;;;;22.73;20.43;;;;;;;11.53;100.00;96859.03;5090728;28;20225;-56
2022/10/14 03:23:09;;;;;;;24.97;22.70;;;;;;;11.66;100.00;96864.00;5094512;28;20180;-53
2022/10/14 03:25:35;;;;;;;30.67;27.67;;;;;;;11.60;100.00;96849.19;5094659;28;20203;-56
2022/10/14 03:28:00;;;;;;;31.00;27.77;;;;;;;11.51;100.00;96860.28;5094551;28;20248;-54
2022/10/14 03:30:26;;;;;;;34.73;31.03;;;;;;;11.53;100.00;96850.38;5093667;28;20172;-57
2022/10/14 03:32:51;;;;;;;34.77;31.47;;;;;;;11.65;100.00;96853.75;5094175;28;20687;-54
2022/10/14 03:35:17;;;;;;;35.90;32.57;;;;;;;11.54;100.00;96846.69;5094387;28;20276;-54
2022/10/14 03:37:42;;;;;;;38.87;35.27;;;;;;;11.47;100.00;96849.44;5094430;28;20196;-56
2022/10/14 03:40:09;;;;;;;44.23;40.40;;;;;;;11.66;100.00;96848.25;5094348;28;20191;-55
2022/10/14 03:42:34;;;;;;;42.57;38.57;;;;;;;11.82;100.00;96841.50;5094258;28;20187;-57
2022/10/14 03:44:59;;;;;;;41.03;37.23;;;;;;;11.79;100.00;96833.31;5093399;28;20267;-57
2022/10/14 03:47:25;;;;;;;31.10;27.73;;;;;;;11.85;100.00;96835.00;5093687;28;20281;-57
2022/10/14 03:49:50;;;;;;;34.10;30.47;;;;;;;11.78;100.00;96829.91;5090156;28;20212;-57
2022/10/14 03:52:16;;;;;;;36.30;32.40;;;;;;;11.87;100.00;96825.09;5094141;28;20257;-56
2022/10/14 03:54:41;;;;;;;32.73;29.53;;;;;;;11.90;100.00;96828.03;5094009;28;20177;-54
2022/10/14 03:57:07;;;;;;;32.33;29.00;;;;;;;11.89;100.00;96830.88;5093425;28;20200;-56
2022/10/14 03:59:32;;;;;;;36.80;33.40;;;;;;;11.90;100.00;96822.78;5092692;28;20165;-56
2022/10/14 04:01:57;;;;;;;32.77;29.57;;;;;;;11.93;100.00;96821.50;5093644;28;20264;-57
2022/10/14 04:04:23;;;;;;;31.33;28.20;;;;;;;11.92;100.00;96823.34;5093879;28;20179;-56
2022/10/14 04:06:49;;;;;;;36.90;33.30;;;;;;;11.91;100.00;96816.50;5093493;28;20224;-57
2022/10/14 04:09:15;;;;;;;32.80;29.57;;;;;;;11.85;100.00;96814.00;5093545;28;20200;-54
2022/10/14 04:11:40;;;;;;;33.20;29.97;;;;;;;11.78;100.00;96813.34;5093499;28;20637;-57
2022/10/14 04:14:06;;;;;;;31.57;28.77;;;;;;;11.77;100.00;96809.09;5093402;28;20176;-57
2022/10/14 04:16:31;;;;;;;32.77;29.60;;;;;;;11.81;100.00;96805.81;5093404;28;20246;-57
2022/10/14 04:18:57;;;;;;;30.30;27.37;;;;;;;11.82;100.00;96810.00;5088376;28;20207;-56
2022/10/14 04:21:23;;;;;;;29.07;26.37;;;;;;;11.94;100.00;96804.72;5090820;28;20637;-57
2022/10/14 04:23:49;;;;;;;31.90;28.67;;;;;;;11.93;100.00;96800.47;5091999;28;20234;-55
2022/10/14 04:26:14;;;;;;;31.33;28.00;;;;;;;11.94;100.00;96802.88;5093182;28;20242;-56
2022/10/14 04:28:40;;;;;;;32.37;29.17;;;;;;;11.83;100.00;96803.72;5093696;28;20163;-56
2022/10/14 04:31:05;;;;;;;35.17;30.90;;;;;;;11.86;100.00;96792.78;5093162;28;20255;-57
2022/10/14 04:33:31;;;;;;;31.43;28.00;;;;;;;11.87;100.00;96796.97;5093107;28;20173;-55
2022/10/14 04:35:58;;;;;;;27.33;24.63;;;;;;;11.92;100.00;96798.91;5092402;28;20204;-53
2022/10/14 04:38:23;;;;;;;29.60;26.60;;;;;;;11.87;100.00;96798.81;5093106;28;20197;-56
2022/10/14 04:40:49;;;;;;;29.00;26.07;;;;;;;11.79;100.00;96801.81;5093080;28;20294;-55
2022/10/14 04:43:14;;;;;;;27.37;24.50;;;;;;;11.77;100.00;96798.59;5092194;28;20172;-56
2022/10/14 04:45:40;;;;;;;28.50;25.43;;;;;;;11.89;100.00;96794.13;5092557;28;20228;-56
2022/10/14 04:48:06;;;;;;;29.23;26.23;;;;;;;11.82;100.00;96794.25;5092630;28;20628;-55
2022/10/14 04:50:31;;;;;;;29.43;26.43;;;;;;;11.87;100.00;96791.72;5092823;28;20259;-54
2022/10/14 04:52:57;;;;;;;28.87;25.03;;;;;;;11.86;100.00;96790.16;5093185;28;20202;-54
2022/10/14 04:55:22;;;;;;;31.83;28.80;;;;;;;11.83;100.00;96787.97;5092625;28;20200;-54
2022/10/14 04:57:47;;;;;;;24.77;22.27;;;;;;;11.74;100.00;96784.13;5092287;28;20287;-53
2022/10/14 05:00:14;;;;;;;29.57;26.60;;;;;;;11.81;100.00;96784.81;5092766;28;20203;-55
2022/10/14 05:02:40;;;;;;;31.67;28.87;;;;;;;11.80;100.00;96780.56;5091831;28;20191;-56
2022/10/14 05:05:06;;;;;;;23.30;20.97;;;;;;;11.86;100.00;96784.09;5091070;28;20168;-55
2022/10/14 05:07:32;;;;;;;23.90;21.57;;;;;;;11.75;100.00;96780.47;5092046;28;20181;-55
2022/10/14 05:09:57;;;;;;;25.83;23.23;;;;;;;11.70;100.00;96769.84;5092435;28;20184;-53
2022/10/14 05:12:22;;;;;;;23.47;21.33;;;;;;;11.78;100.00;96772.13;5092242;28;20184;-52
2022/10/14 05:14:48;;;;;;;24.17;21.83;;;;;;;11.91;100.00;96763.97;5091727;28;20180;-54
2022/10/14 05:17:13;;;;;;;26.50;23.90;;;;;;;11.92;100.00;96764.78;5091964;28;20235;-56
2022/10/14 05:19:39;;;;;;;27.50;24.97;;;;;;;11.83;100.00;96761.72;5090170;28;20195;-55
2022/10/14 05:22:04;;;;;;;26.27;23.83;;;;;;;11.96;100.00;96765.88;5091127;28;20211;-54
2022/10/14 05:24:30;;;;;;;25.87;23.37;;;;;;;11.91;100.00;96763.16;5091864;28;20176;-56
2022/10/14 05:26:55;;;;;;;23.33;20.97;;;;;;;11.94;100.00;96757.44;5092245;28;20680;-61
2022/10/14 05:29:20;;;;;;;27.07;24.10;;;;;;;11.91;100.00;96755.28;5091575;28;20165;-55
2022/10/14 05:31:46;;;;;;;23.83;21.30;;;;;;;11.93;100.00;96753.22;5092207;28;20662;-55
2022/10/14 05:34:11;;;;;;;25.97;23.67;;;;;;;11.91;100.00;96750.84;5092475;28;20173;-54
2022/10/14 05:36:37;;;;;;;23.50;21.00;;;;;;;11.89;100.00;96749.47;5092340;28;20208;-50
2022/10/14 05:39:06;;;;;;;25.50;22.83;;;;;;;11.89;100.00;96749.47;5092005;28;20185;-51
2022/10/14 05:41:31;;;;;;;33.00;22.73;;;;;;;11.87;100.00;96744.44;5091237;28;20317;-55
2022/10/14 05:43:57;;;;;;;28.33;21.67;;;;;;;11.94;100.00;96746.94;5091195;28;20201;-53
2022/10/14 05:46:22;;;;;;;29.07;22.93;;;;;;;11.80;100.00;96743.81;5091838;28;20302;-55
2022/10/14 05:48:47;;;;;;;30.57;24.30;;;;;;;11.92;100.00;96741.94;5091977;28;20201;-56
2022/10/14 05:51:14;;;;;;;23.63;21.10;;;;;;;11.95;100.00;96746.69;5092132;28;20176;-57
2022/10/14 05:53:40;;;;;;;31.63;28.47;;;;;;;11.97;100.00;96734.13;5092325;28;20169;-54
2022/10/14 05:56:07;;;;;;;30.30;25.33;;;;;;;12.04;100.00;96729.50;5095963;28;20582;-54
2022/10/14 05:58:33;;;;;;;28.57;25.10;;;;;;;12.05;100.00;96736.38;5095443;28;20188;-52
2022/10/14 06:01:04;;;;;;;32.23;29.03;;;;;;;11.96;100.00;96729.91;5094141;28;20250;-53
2022/10/14 06:03:30;;;;;;;33.83;29.27;;;;;;;12.00;100.00;96735.47;5095932;28;20533;-54
2022/10/14 06:05:55;;;;;;;31.67;28.63;;;;;;;11.98;100.00;96737.56;5095174;28;20211;-53
2022/10/14 06:08:22;;;;;;;28.87;25.83;;;;;;;11.99;100.00;96734.69;5095019;28;20182;-54
2022/10/14 06:10:47;;;;;;;28.70;25.80;;;;;;;12.07;100.00;96728.25;5095019;28;20192;-54
2022/10/14 06:13:13;;;;;;;31.40;27.27;;;;;;;12.15;100.00;96732.34;5095517;28;20210;-55
2022/10/14 06:15:39;;;;;;;27.47;23.20;;;;;;;12.16;100.00;96731.28;5095469;28;20208;-54
2022/10/14 06:18:05;;;;;;;26.47;23.53;;;;;;;12.20;100.00;96730.59;5095621;28;20216;-54
2022/10/14 06:20:30;;;;;;;25.80;23.17;;;;;;;12.26;100.00;96734.09;5093058;28;20311;-52
2022/10/14 06:22:57;;;;;;;29.13;26.27;;;;;;;12.05;100.00;96741.63;5095536;28;20172;-53
2022/10/14 06:25:23;;;;;;;25.93;23.27;;;;;;;12.09;100.00;96744.59;5095352;28;20212;-59
2022/10/14 06:27:48;;;;;;;31.30;28.23;;;;;;;13.13;100.00;96745.69;5095339;28;20173;-57
2022/10/14 06:30:14;;;;;;;35.47;31.27;;;;;;;12.59;100.00;96741.19;5094900;28;20256;-59
2022/10/14 06:32:40;;;;;;;23.73;21.23;;;;;;;12.47;100.00;96738.63;5095618;28;20161;-59
2022/10/14 06:35:06;;;;;;;20.73;17.97;;;;;;;12.34;100.00;96736.31;5095170;28;20200;-57
2022/10/14 06:37:31;;;;;;;22.67;20.03;;;;;;;12.15;100.00;96735.72;5095274;28;20205;-57
2022/10/14 06:39:57;;;;;;;20.13;17.97;;;;;;;12.31;100.00;96740.22;5094709;28;20196;-53
2022/10/14 06:42:22;;;;;;;22.17;19.37;;;;;;;12.36;100.00;96734.25;5094620;28;20227;-52
2022/10/14 06:44:48;;;;;;;21.33;17.50;;;;;;;12.28;100.00;96734.63;5094624;28;20184;-55
2022/10/14 06:47:13;;;;;;;21.97;19.40;;;;;;;12.24;100.00;96738.78;5094655;28;20219;-55
2022/10/14 06:49:38;;;;;;;23.27;18.53;;;;;;;12.34;100.00;96744.19;5094200;28;20172;-55
2022/10/14 06:52:04;;;;;;;21.07;18.90;;;;;;;12.39;100.00;96739.03;5095033;28;20204;-52
2022/10/14 06:54:29;;;;;;;19.73;17.73;;;;;;;12.41;100.00;96740.38;5094939;28;20226;-55
2022/10/14 06:56:55;;;;;;;29.17;19.30;;;;;;;12.48;100.00;96748.13;5094144;28;20196;-53
2022/10/14 06:59:20;;;;;;;23.07;20.77;;;;;;;12.52;100.00;96737.91;5094684;28;20196;-53
2022/10/14 07:01:45;;;;;;;22.23;20.03;;;;;;;12.45;100.00;96738.06;5094776;28;20598;-54
2022/10/14 07:04:11;;;;;;;21.63;19.37;;;;;;;12.67;100.00;96731.06;5094875;28;20180;-54
2022/10/14 07:06:37;;;;;;;25.20;22.53;;;;;;;12.59;100.00;96731.47;5093836;28;20209;-54
2022/10/14 07:09:03;;;;;;;27.07;24.67;;;;;;;12.84;100.00;96731.81;5094972;28;20169;-55
2022/10/14 07:11:29;;;;;;;24.47;22.20;;;;;;;12.73;100.00;96737.19;5094746;28;20183;-55
2022/10/14 07:13:55;;;;;;;21.60;19.70;;;;;;;12.63;100.00;96732.56;5094355;28;20173;-55
2022/10/14 07:16:21;;;;;;;26.53;23.90;;;;;;;12.63;100.00;96732.56;5094418;28;20219;-55
2022/10/14 07:18:47;;;;;;;24.03;22.10;;;;;;;12.79;100.00;96738.84;5094262;28;20212;-55
2022/10/14 07:21:13;;;;;;;17.80;15.80;;;;;;;12.85;100.00;96738.69;5091564;28;20232;-54
2022/10/14 07:23:38;;;;;;;19.23;17.43;;;;;;;12.75;100.00;96729.84;5094071;28;20180;-53
2022/10/14 07:26:04;;;;;;;21.30;18.13;;;;;;;12.81;100.00;96732.31;5094049;28;20200;-56
2022/10/14 07:28:29;;;;;;;22.93;20.43;;;;;;;12.81;100.00;96734.94;5094372;28;20164;-51
2022/10/14 07:31:15;;;;;;;27.30;20.57;;;;;;;12.91;100.00;96731.66;5094284;28;20251;-53
2022/10/14 07:33:40;;;;;;;23.43;21.23;;;;;;;12.93;100.00;96733.00;5093408;28;20245;-52
2022/10/14 07:36:10;;;;;;;22.37;20.40;;;;;;;13.03;100.00;96740.25;5094052;28;20615;-55
2022/10/14 07:38:36;;;;;;;16.23;14.57;;;;;;;13.08;100.00;96742.16;5094326;28;20220;-52
2022/10/14 07:41:15;;;;;;;24.13;22.03;;;;;;;13.30;100.00;96738.53;5094028;28;20758;-54
2022/10/14 07:43:40;;;;;;;22.80;20.90;;;;;;;13.55;100.00;96745.91;5093097;28;20180;-52
2022/10/14 07:46:07;;;;;;;19.70;17.60;;;;;;;13.68;100.00;96740.28;5093297;28;20649;-54
2022/10/14 07:48:33;;;;;;;22.53;20.20;;;;;;;13.52;100.00;96751.69;5093811;28;20161;-52
2022/10/14 07:50:59;;;;;;;19.37;17.63;;;;;;;13.63;100.00;96753.41;5093470;28;20184;-57
2022/10/14 07:53:26;;;;;;;21.10;19.47;;;;;;;13.49;100.00;96760.06;5094004;28;20195;-53
2022/10/14 07:55:52;;;;;;;24.40;22.40;;;;;;;13.61;100.00;96746.78;5093393;28;20204;-52
2022/10/14 07:58:23;;;;;;;22.47;20.43;;;;;;;13.65;100.00;96753.94;5093350;28;20180;-54
2022/10/14 08:00:49;;;;;;;22.73;20.93;;;;;;;13.61;100.00;96744.13;5093737;28;20621;-52
2022/10/14 08:03:16;;;;;;;23.63;21.63;;;;;;;13.90;100.00;96747.34;5093163;28;20816;-51
2022/10/14 08:05:42;;;;;;;24.40;22.47;;;;;;;13.85;100.00;96747.31;5092574;28;20279;-57
2022/10/14 08:08:09;;;;;;;19.70;17.90;;;;;;;13.91;100.00;96747.09;5093849;28;20181;-54
2022/10/14 08:10:35;;;;;;;19.13;17.43;;;;;;;13.96;100.00;96733.97;5093776;28;20180;-56
2022/10/14 08:13:00;;;;;;;23.50;20.93;;;;;;;14.15;100.00;96739.72;5093200;28;20180;-55
2022/10/14 08:15:28;;;;;;;22.23;20.03;;;;;;;14.02;100.00;96740.09;5093382;28;20211;-54
2022/10/14 08:17:54;;;;;;;20.90;19.00;;;;;;;14.10;100.00;96731.72;5092430;28;20227;-57
2022/10/14 08:20:19;;;;;;;21.07;19.57;;;;;;;14.09;100.00;96733.59;5090737;28;20704;-56
2022/10/14 08:22:45;;;;;;;17.53;15.97;;;;;;;14.05;100.00;96742.22;5093460;28;20652;-55
2022/10/14 08:25:10;;;;;;;15.47;14.17;;;;;;;13.85;100.00;96734.13;5093208;28;20662;-53
2022/10/14 08:27:36;;;;;;;15.40;13.87;;;;;;;13.87;100.00;96737.31;5093201;28;20188;-52
2022/10/14 08:30:01;;;;;;;16.97;15.03;;;;;;;14.18;100.00;96730.50;5093299;28;20289;-55
2022/10/14 08:32:27;;;;;;;22.63;21.03;;;;;;;14.32;100.00;96734.31;5092878;28;20208;-55
2022/10/14 08:34:54;;;;;;;25.73;23.93;;;;;;;14.21;100.00;96737.91;5092607;28;20508;-56
2022/10/14 08:37:20;;;;;;;17.00;15.63;;;;;;;14.26;100.00;96730.84;5093004;28;20606;-53
2022/10/14 08:39:46;;;;;;;21.63;20.07;;;;;;;14.14;100.00;96727.56;5092760;28;20353;-50
2022/10/14 08:42:46;;;;;;;29.67;27.67;;;;;;;14.36;100.00;96728.28;5091692;28;20280;-54
2022/10/14 08:45:17;;;;;;;14.77;13.50;;;;;;;14.55;100.00;96726.06;5088342;28;20173;-56
2022/10/14 08:47:45;;;;;;;18.60;17.00;;;;;;;14.54;100.00;96732.41;5092672;28;20179;-53
2022/10/14 08:50:27;;;;;;;16.57;15.13;;;;;;;14.61;100.00;96719.78;5092861;28;20187;-55
2022/10/14 08:53:01;;;;;;;16.00;14.87;;;;;;;14.66;100.00;96725.09;5093093;28;20173;-56
2022/10/14 08:55:31;;;;;;;21.03;19.50;;;;;;;14.85;100.00;96728.13;5092230;28;20197;-52
2022/10/14 08:58:02;;;;;;;17.37;15.70;;;;;;;15.05;100.00;96728.22;5092678;28;20192;-57
2022/10/14 09:00:29;;;;;;;19.50;17.80;;;;;;;14.89;100.00;96727.34;5092757;28;20251;-55
2022/10/14 09:02:57;;;;;;;14.00;12.80;;;;;;;15.19;100.00;96731.22;5092329;28;20682;-52
2022/10/14 09:05:25;;;;;;;13.00;12.00;;;;;;;15.18;100.00;96730.44;5091811;28;20200;-52
2022/10/14 09:07:54;;;;;;;16.00;11.90;;;;;;;15.52;100.00;96728.22;5092263;28;20174;-53
2022/10/14 09:10:31;;;;;;;16.87;15.53;;;;;;;15.43;100.00;96728.97;5092550;28;20188;-52
2022/10/14 09:13:02;;;;;;;17.10;15.90;;;;;;;15.44;100.00;96730.53;5090840;28;20720;-53
2022/10/14 09:15:38;;;;;;;17.93;16.33;;;;;;;15.60;100.00;96730.38;5092278;28;20676;-53
2022/10/14 09:18:14;;;;;;;18.80;16.87;;;;;;;15.45;100.00;96722.34;5091956;28;20325;-55
2022/10/14 09:20:41;;;;;;;18.07;16.33;;;;;;;15.65;100.00;96719.03;5089853;28;20595;-55
2022/10/14 09:23:06;;;;;;;16.57;15.33;;;;;;;15.76;100.00;96716.16;5092323;28;20215;-53
2022/10/14 09:25:33;;;;;;;19.50;17.87;;;;;;;15.54;100.00;96712.91;5090576;28;20666;-56
2022/10/14 09:27:59;;;;;;;17.53;16.23;;;;;;;15.66;100.00;96716.09;5092086;28;20173;-55
2022/10/14 09:30:30;;;;;;;14.40;13.20;;;;;;;15.51;100.00;96716.03;5095367;28;20565;-58
2022/10/14 09:32:58;;;;;;;12.90;11.67;;;;;;;15.68;100.00;96713.22;5095663;28;20169;-55
2022/10/14 09:35:26;;;;;;;12.47;11.33;;;;;;;15.70;100.00;96711.13;5096689;28;20204;-57
2022/10/14 09:37:52;;;;;;;12.68;11.68;;;;;;;15.71;100.00;96712.69;5096560;28;20287;-54
2022/10/14 09:40:40;;;;;;;11.77;10.77;;;;;;;15.74;100.00;96712.97;5096245;28;20236;-57
2022/10/14 09:43:13;;;;;;;9.97;9.17;;;;;;;15.74;100.00;96712.16;5095334;28;20208;-55
2022/10/14 09:46:03;;;;;;;14.83;13.57;;;;;;;15.91;100.00;96706.66;5096026;28;20196;-52
2022/10/14 09:48:31;;;;;;;13.53;12.37;;;;;;;15.97;100.00;96702.97;5090544;28;20281;-51
2022/10/14 09:50:58;;;;;;;12.13;11.07;;;;;;;15.99;100.00;96709.59;5096104;28;20230;-50
2022/10/14 09:53:30;;;;;;;11.30;10.30;;;;;;;16.02;100.00;96703.75;5096015;28;20655;-53
2022/10/14 09:56:07;;;;;;;12.32;10.23;;;;;;;16.21;100.00;96698.75;5095980;28;20301;-55
2022/10/14 09:58:45;;;;;;;11.20;10.30;;;;;;;16.13;100.00;96694.78;5095972;28;20196;-52
2022/10/14 10:01:39;;;;;;;14.07;12.97;;;;;;;16.32;100.00;96687.13;5095863;28;20188;-53
2022/10/14 10:04:24;;;;;;;9.80;9.00;;;;;;;16.30;100.00;96685.78;5077500;28;20747;-54
2022/10/14 10:06:52;;;;;;;13.83;12.87;;;;;;;16.18;100.00;96678.91;5096149;28;20239;-54
2022/10/14 10:09:18;;;;;;;11.63;10.50;;;;;;;16.33;100.00;96675.47;5094068;28;20177;-53
2022/10/14 10:11:43;;;;;;;19.75;18.52;;;;;;;16.43;100.00;96680.78;5094989;28;20230;-54
2022/10/14 10:14:23;;;;;;;22.17;20.75;;;;;;;16.74;100.00;96675.47;5095916;28;20504;-53
2022/10/14 10:17:11;;;;;;;26.33;24.63;;;;;;;16.95;100.00;96676.97;5087806;28;20196;-54
2022/10/14 10:19:50;;;;;;;22.40;20.80;;;;;;;17.01;100.00;96670.63;5093540;28;20267;-53
2022/10/14 10:22:18;;;;;;;20.15;18.75;;;;;;;17.10;100.00;96669.00;5094605;28;20193;-54
2022/10/14 10:24:45;;;;;;;39.25;36.72;;;;;;;17.08;100.00;96670.34;5094948;28;20255;-55
2022/10/14 10:27:40;;;;;;;42.90;40.03;;;;;;;17.14;100.00;96663.97;5094886;28;20207;-53
2022/10/14 10:30:42;;;;;;;34.13;31.80;;;;;;;17.04;100.00;96659.50;5095061;28;20627;-53
2022/10/14 10:33:35;;;;;;;40.17;37.65;;;;;;;16.95;100.00;96653.94;5095437;28;20172;-54
2022/10/14 10:36:21;;;;;;;20.13;18.48;;;;;;;16.86;100.00;96650.28;5095250;28;20292;-55
2022/10/14 10:39:15;;;;;;;30.40;28.50;;;;;;;17.13;100.00;96643.81;5094234;28;20214;-54
2022/10/14 10:41:52;;;;;;;18.83;17.52;;;;;;;17.29;100.00;96643.50;5093935;28;20272;-57
2022/10/14 10:44:39;;;;;;;18.52;16.92;;;;;;;17.40;100.00;96646.88;5095470;28;20175;-54
2022/10/14 10:47:23;;;;;;;13.68;12.05;;;;;;;17.18;100.00;96628.72;5079722;28;20649;-53
2022/10/14 10:50:07;;;;;;;38.85;36.40;;;;;;;17.16;100.00;96627.41;5094766;28;20169;-55
2022/10/14 10:53:03;;;;;;;23.00;21.42;;;;;;;17.04;100.00;96625.88;5094828;28;20188;-51
2022/10/14 10:55:31;;;;;;;15.77;14.38;;;;;;;17.00;100.00;96622.16;5094743;28;20247;-56
2022/10/14 10:58:15;;;;;;;16.50;15.05;;;;;;;17.00;100.00;96621.34;5094765;28;20242;-55
2022/10/14 11:00:56;;;;;;;13.43;12.43;;;;;;;17.08;100.00;96618.16;5094952;28;20207;-52
2022/10/14 11:03:53;;;;;;;20.80;19.50;;;;;;;17.21;100.00;96619.44;5094447;28;20196;-57
2022/10/14 11:12:01;;;;;;;24.58;22.95;;;;;;;17.21;100.00;96616.78;5094061;28;20254;-54
2022/10/14 11:12:09;;;;;;;18.83;17.45;;;;;;;17.26;100.00;96616.75;5094737;28;20195;-56
2022/10/14 11:15:05;;;;;;;20.52;18.77;;;;;;;17.10;100.00;96607.31;5094447;28;20172;-56
2022/10/14 11:17:42;;;;;;;17.33;16.10;;;;;;;17.22;100.00;96605.91;5094191;28;20264;-57
2022/10/14 11:20:16;;;;;;;32.88;30.88;;;;;;;16.78;100.00;96608.47;5092413;28;20228;-55
2022/10/14 11:22:57;;;;;;;55.55;52.40;;;;;;;16.56;100.00;96607.97;5094088;28;20207;-52
2022/10/14 11:25:41;;;;;;;16.77;15.77;;;;;;;16.47;100.00;96601.66;5093362;28;20215;-55
2022/10/14 11:28:44;;;;;;;8.65;7.53;;;;;;;16.37;100.00;96599.84;5094365;28;20173;-57